Time;durP1;ratioP1;P1;durP2;ratioP2;P2;SDS_P1;SDS_P2;PMS_P1;PMS_P2;Temp;Humidity;BMP_temperature;BMP_pressure;BME280_temperature;BME280_humidity;BME280_pressure;Samples;Min_cycle;Max_cycle;Signal;HPM_P1;HPM_P2
2021/05/06 00:02:11;;;;;;;6.20;2.00;;;8.80;99.90;;;;;;5094438;28;20251;-73
2021/05/06 00:32:08;;;;;;;5.40;2.27;;;8.40;99.90;;;;;;5094176;28;20292;-73
2021/05/06 00:34:35;;;;;;;5.43;2.20;;;8.30;99.90;;;;;;5094088;28;20201;-73
2021/05/06 00:37:02;;;;;;;4.40;1.83;;;8.30;99.90;;;;;;5093983;28;20431;-73
2021/05/06 00:39:31;;;;;;;5.43;2.00;;;8.30;99.90;;;;;;5093395;28;20643;-73
2021/05/06 00:56:02;;;;;;;4.53;2.27;;;;;;;;;;5093534;28;20239;-73
2021/05/06 01:01:22;;;;;;;5.57;2.13;;;;;;;;;;5030826;28;20247;-74
2021/05/06 01:04:02;;;;;;;6.33;2.30;;;;;;;;;;5027305;28;20245;-73
2021/05/06 01:06:31;;;;;;;5.10;2.20;;;;;;;;;;5030305;28;20335;-73
2021/05/06 01:09:02;;;;;;;6.17;2.37;;;;;;;;;;5030883;28;20700;-73
2021/05/06 01:11:33;;;;;;;5.63;2.20;;;;;;;;;;5030367;28;20738;-73
2021/05/06 01:14:04;;;;;;;7.57;2.60;;;;;;;;;;5030366;28;20231;-73
2021/05/06 01:16:31;;;;;;;6.77;2.80;;;;;;;;;;5029845;28;20207;-73
2021/05/06 01:18:57;;;;;;;10.40;2.80;;;;;;;;;;5030325;28;20211;-74
2021/05/06 01:21:25;;;;;;;7.57;2.73;;;;;;;;;;5029371;28;20316;-73
2021/05/06 01:23:53;;;;;;;6.57;2.70;;;;;;;;;;5030304;28;20306;-73
2021/05/06 01:26:29;;;;;;;7.60;2.90;;;;;;;;;;5029090;28;20278;-73
2021/05/06 01:28:59;;;;;;;8.07;3.00;;;;;;;;;;5029667;28;20273;-73
2021/05/06 01:31:28;;;;;;;5.97;2.63;;;;;;;;;;5018921;28;20203;-73
2021/05/06 01:34:04;;;;;;;5.07;2.90;;;;;;;;;;5027843;28;20215;-73
2021/05/06 01:36:34;;;;;;;8.37;3.20;;;;;;;;;;5030268;28;20532;-73
2021/05/06 01:39:17;;;;;;;8.10;2.90;;;;;;;;;;5077253;28;20206;-74
2021/05/06 01:41:50;;;;;;;10.13;2.90;;;;;;;;;;5092910;28;20222;-73
2021/05/06 01:44:26;;;;;;;8.47;3.40;;;;;;;;;;5092677;28;20242;-73
2021/05/06 01:47:04;;;;;;;9.07;3.17;;;;;;;;;;5092404;28;20202;-74
2021/05/06 01:57:58;;;;;;;7.67;3.20;;;;;;;;;;5092596;28;20245;-73
2021/05/06 02:00:28;;;;;;;6.80;3.23;;;;;;;;;;5091855;28;20268;-73
2021/05/06 02:02:55;;;;;;;10.40;3.30;;;;;;;;;;5092782;28;20295;-73
2021/05/06 02:05:22;;;;;;;6.87;3.07;;;;;;;;;;5091792;28;20210;-73
2021/05/06 02:07:50;;;;;;;7.80;3.50;;;;;;;;;;5091799;28;20591;-73
2021/05/06 02:10:18;;;;;;;8.40;3.40;;;;;;;;;;5091452;28;20289;-73
2021/05/06 02:12:44;;;;;;;6.97;3.00;;;;;;;;;;5091737;28;20213;-73
2021/05/06 02:15:15;;;;;;;8.20;3.30;;;;;;;;;;5091973;28;20212;-73
2021/05/06 02:17:42;;;;;;;8.17;3.57;;;;;;;;;;5090516;28;20208;-73
2021/05/06 02:20:09;;;;;;;10.77;3.93;;;;;;;;;;5091347;28;20232;-73
2021/05/06 02:22:36;;;;;;;7.20;3.03;;;;;;;;;;5091677;28;21003;-73
2021/05/06 02:25:04;;;;;;;7.73;3.13;;;;;;;;;;5091438;28;20237;-73
2021/05/06 02:27:31;;;;;;;8.47;3.57;;;;;;;;;;5088453;28;20240;-73
2021/05/06 02:29:57;;;;;;;7.23;3.27;;;;;;;;;;5092014;28;20281;-73
2021/05/06 02:32:24;;;;;;;9.67;3.47;;;;;;;;;;5091873;28;20230;-73
2021/05/06 02:34:51;;;;;;;6.80;3.33;;;;;;;;;;5091880;28;20213;-73
2021/05/06 02:37:18;;;;;;;8.60;3.10;;;;;;;;;;5091136;28;20297;-74
2021/05/06 02:39:46;;;;;;;8.20;3.43;;;;;;;;;;5091353;28;20251;-73
2021/05/06 02:42:14;;;;;;;7.50;3.47;;;;;;;;;;5091288;28;20751;-73
2021/05/06 02:44:40;;;;;;;7.13;3.30;;;;;;;;;;5091485;28;20582;-73
2021/05/06 02:47:07;;;;;;;8.23;2.87;;;;;;;;;;5090989;28;20206;-73
2021/05/06 02:49:35;;;;;;;10.03;3.50;;;;;;;;;;5086566;28;20720;-73
2021/05/06 02:52:07;;;;;;;9.77;3.60;;;;;;;;;;5091596;28;20191;-73
2021/05/06 02:54:39;;;;;;;9.20;3.07;;;;;;;;;;5090830;28;20220;-73
2021/05/06 02:57:12;;;;;;;6.07;3.23;;;;;;;;;;5091057;28;20209;-73
2021/05/06 03:05:06;;;;;;;8.07;3.50;;;;;;;;;;5091618;28;20335;-73
2021/05/06 03:07:33;;;;;;;9.17;3.90;;;;;;;;;;5091470;28;20206;-74
2021/05/06 03:10:06;;;;;;;7.70;3.83;;;;;;;;;;5090650;28;20677;-73
2021/05/06 03:12:56;;;;;;;6.20;3.27;;;;;;;;;;5090817;28;20204;-73
2021/05/06 03:23:50;;;;;;;6.17;2.83;;;;;;;;;;5090682;28;20202;-73
2021/05/06 03:26:17;;;;;;;5.33;3.03;;;;;;;;;;5090418;28;20696;-73
2021/05/06 03:28:48;;;;;;;6.67;3.43;;;;;;;;;;5090611;28;20218;-73
2021/05/06 03:31:43;;;;;;;6.97;3.50;;;;;;;;;;5076762;28;20272;-73
2021/05/06 03:42:20;;;;;;;8.53;3.20;;;;;;;;;;5091185;28;20232;-74
2021/05/06 03:44:56;;;;;;;6.73;3.47;;;;;;;;;;5090308;28;20206;-73
2021/05/06 03:51:03;;;;;;;8.53;3.30;;;;;;;;;;5009031;28;20299;-73
2021/05/06 04:16:01;;;;;;;7.70;2.70;;;;;;;;;;4950119;29;20203;-73
2021/05/06 04:18:30;;;;;;;12.00;2.90;;;;;;;;;;4949482;29;20757;-73
2021/05/06 04:26:34;;;;;;;4.13;2.50;;;;;;;;;;5031214;28;20250;-73
2021/05/06 04:37:12;;;;;;;6.17;2.40;;;;;;;;;;5027669;28;20274;-73
2021/05/06 04:39:49;;;;;;;3.60;2.13;;;;;;;;;;5031084;28;20230;-73
2021/05/06 04:45:41;;;;;;;5.87;2.40;;;;;;;;;;5085630;28;20194;-73
2021/05/06 04:53:51;;;;;;;5.20;2.37;;;;;;;;;;5093517;28;20197;-73
2021/05/06 04:56:39;;;;;;;8.20;2.37;;;;;;;;;;5093904;28;20213;-73
2021/05/06 04:59:26;;;;;;;7.40;2.80;;;;;;;;;;5078855;28;20215;-74
2021/05/06 05:04:40;;;;;;;6.33;2.63;;;;;;;;;;5093714;28;20247;-74
2021/05/06 05:07:11;;;;;;;7.60;2.70;;;;;;;;;;5092947;28;20243;-73
2021/05/06 05:12:31;;;;;;;7.70;2.73;;;;;;;;;;5093004;28;20697;-72
2021/05/06 05:17:38;;;;;;;5.73;2.83;;;;;;;;;;5093090;28;20653;-73
2021/05/06 05:18:03;;;;;;;6.60;2.63;;;;;;;;;;5093161;28;20201;-74
2021/05/06 05:20:40;;;;;;;6.03;2.90;;;;;;;;;;5091184;28;20217;-74
2021/05/06 05:25:59;;;;;;;6.77;3.30;;;;;;;;;;5093009;28;20263;-73
2021/05/06 05:28:26;;;;;;;5.93;3.50;;;;;;;;;;5092871;28;20212;-72
2021/05/06 05:30:53;;;;;;;10.10;3.27;;;;;;;;;;5092586;28;20293;-73
2021/05/06 05:33:22;;;;;;;9.53;3.10;;;;;;;;;;5091357;28;20212;-72
2021/05/06 05:35:55;;;;;;;5.73;3.23;;;;;;;;;;5092765;28;20201;-72
2021/05/06 05:38:32;;;;;;;9.90;3.40;;;;;;;;;;5072560;28;20742;-74
2021/05/06 05:41:09;;;;;;;9.70;3.20;;;;;;;;;;5090571;28;20221;-74
2021/05/06 05:43:53;;;;;;;6.13;3.03;;;;;;;;;;5091991;28;20290;-73
2021/05/06 05:54:36;;;;;;;5.43;2.93;;;;;;;;;;5084762;28;20220;-73
2021/05/06 05:57:06;;;;;;;6.37;2.83;;;;;;;;;;5078199;28;20684;-73
2021/05/06 05:59:33;;;;;;;9.87;3.17;;;;;;;;;;5090036;28;20234;-73
2021/05/06 06:02:00;;;;;;;7.57;3.57;;;;;;;;;;5090083;28;20227;-73
2021/05/06 06:04:27;;;;;;;6.33;3.00;;;;;;;;;;5090551;28;20195;-73
2021/05/06 06:06:53;;;;;;;5.33;3.20;;;;;;;;;;5091292;28;20332;-73
2021/05/06 06:09:20;;;;;;;4.27;2.83;;;;;;;;;;5091206;28;20602;-74
2021/05/06 06:11:47;;;;;;;7.00;3.13;;;;;;;;;;5091594;28;20629;-73
2021/05/06 06:14:20;;;;;;;5.43;3.13;;;;;;;;;;5091734;28;20294;-74
2021/05/06 06:16:47;;;;;;;6.00;3.00;;;;;;;;;;5090486;28;20207;-73
2021/05/06 06:19:15;;;;;;;4.47;2.90;;;;;;;;;;5091063;28;20686;-73
2021/05/06 06:21:45;;;;;;;4.93;2.90;;;;;;;;;;5091420;28;20319;-73
2021/05/06 06:24:12;;;;;;;6.63;3.00;;;;;;;;;;5090007;28;20206;-73
2021/05/06 06:26:39;;;;;;;5.17;2.77;;;;;;;;;;5090283;28;20244;-73
2021/05/06 06:29:07;;;;;;;5.57;2.73;;;;;;;;;;5089468;28;20354;-73
2021/05/06 06:31:38;;;;;;;5.40;3.33;;;;;;;;;;5089735;28;20757;-74
2021/05/06 06:34:05;;;;;;;3.70;2.90;;;;;;;;;;5090323;28;20661;-73
2021/05/06 06:36:32;;;;;;;5.30;2.70;;;;;;;;;;5089184;28;20205;-73
2021/05/06 06:38:59;;;;;;;3.50;2.63;;;;;;;;;;5089064;28;20335;-73
2021/05/06 06:41:25;;;;;;;5.07;3.17;;;;;;;;;;5090169;28;20217;-73
2021/05/06 06:43:54;;;;;;;5.47;3.53;;;;;;;;;;5088919;28;20226;-74
2021/05/06 06:46:20;;;;;;;6.87;3.60;;;;;;;;;;5087282;28;20191;-73
2021/05/06 06:48:48;;;;;;;7.37;3.07;;;;;;;;;;5071469;28;20267;-73
2021/05/06 06:51:15;;;;;;;3.70;2.87;;;;;;;;;;5089527;28;20193;-74
2021/05/06 06:53:42;;;;;;;4.17;2.37;;;;;;;;;;5089841;28;20622;-74
2021/05/06 06:56:09;;;;;;;4.40;2.50;;;;;;;;;;5089170;28;20293;-74
2021/05/06 06:58:38;;;;;;;3.80;2.60;;;;;;;;;;5089597;28;20281;-73
2021/05/06 07:01:04;;;;;;;4.03;2.53;;;;;;;;;;5087978;28;20222;-71
2021/05/06 07:03:31;;;;;;;4.60;2.70;;;;;;;;;;5087722;28;20202;-72
2021/05/06 07:05:59;;;;;;;3.83;3.10;;;;;;;;;;5089347;28;20297;-72
2021/05/06 07:08:29;;;;;;;3.63;3.10;;;;;;;;;;5089231;28;20278;-73
2021/05/06 07:10:57;;;;;;;4.03;3.20;;;;;;;;;;5088940;28;20205;-74
2021/05/06 07:13:24;;;;;;;5.83;3.20;;;;;;;;;;5087964;28;20194;-73
2021/05/06 07:15:52;;;;;;;3.80;2.87;;;;;;;;;;5089650;28;20650;-74
2021/05/06 07:18:18;;;;;;;4.50;3.23;;;;;;;;;;5089106;28;20205;-73
2021/05/06 07:20:46;;;;;;;5.23;3.40;;;;;;;;;;5089326;28;20225;-73
2021/05/06 07:23:16;;;;;;;4.47;3.23;;;;;;;;;;5090077;28;20218;-74
2021/05/06 07:25:43;;;;;;;5.47;3.20;;;;;;;;;;5087178;28;20214;-74
2021/05/06 07:28:11;;;;;;;4.60;3.40;;;;;;;;;;5089227;28;20793;-74
2021/05/06 07:30:37;;;;;;;3.87;2.73;;;;;;;;;;5088650;28;20189;-74
2021/05/06 07:33:05;;;;;;;3.90;2.67;;;;;;;;;;5087101;28;20211;-74
2021/05/06 07:35:32;;;;;;;3.73;2.70;;;;;;;;;;5088705;28;20739;-73
2021/05/06 07:37:59;;;;;;;3.53;2.60;;;;;;;;;;5089851;28;20300;-71
2021/05/06 07:40:26;;;;;;;3.23;2.50;;;;;;;;;;5089066;28;20228;-74
2021/05/06 07:42:53;;;;;;;2.97;2.50;;;;;;;;;;5087412;28;20277;-74
2021/05/06 07:45:20;;;;;;;2.33;2.00;;;;;;;;;;5088409;28;20198;-73
2021/05/06 07:47:47;;;;;;;2.50;2.30;;;;;;;;;;5086261;28;20234;-74
2021/05/06 07:50:14;;;;;;;4.20;2.43;;;;;;;;;;5088815;28;20321;-74
2021/05/06 07:52:42;;;;;;;3.13;2.30;;;;;;;;;;5071768;28;20289;-74
2021/05/06 07:55:10;;;;;;;2.30;1.93;;;;;;;;;;5089556;28;20569;-74
2021/05/06 07:57:38;;;;;;;2.60;2.00;;;;;;;;;;5085923;28;20202;-74
2021/05/06 08:00:05;;;;;;;2.40;2.20;;;;;;;;;;5089307;28;20287;-74
2021/05/06 08:02:32;;;;;;;4.20;2.40;;;;;;;;;;5090253;28;20733;-73
2021/05/06 08:04:58;;;;;;;3.03;2.40;;;;;;;;;;5092445;28;20297;-73
2021/05/06 08:07:25;;;;;;;3.13;2.83;;;;;;;;;;5093111;28;20210;-73
2021/05/06 08:09:52;;;;;;;3.10;2.80;;;;;;;;;;5086462;28;20214;-76
2021/05/06 08:12:19;;;;;;;4.57;3.20;;;;;;;;;;5086115;28;21040;-76
2021/05/06 08:14:49;;;;;;;3.87;3.00;;;;;;;;;;5092030;28;20363;-75
2021/05/06 08:17:15;;;;;;;3.77;3.43;;;;;;;;;;5089002;28;20297;-75
2021/05/06 08:19:42;;;;;;;3.83;3.53;;;;;;;;;;5092532;28;20280;-75
2021/05/06 08:22:09;;;;;;;4.53;3.40;;;;;;;;;;5091391;28;20221;-75
2021/05/06 08:24:36;;;;;;;3.37;3.07;;;;;;;;;;5092541;28;20684;-74
2021/05/06 08:27:02;;;;;;;4.43;3.53;;;;;;;;;;5088890;28;20312;-75
2021/05/06 08:29:29;;;;;;;5.07;3.93;;;;;;;;;;5091982;28;20237;-75
2021/05/06 08:31:56;;;;;;;4.53;3.70;;;;;;;;;;5088159;28;20190;-75
2021/05/06 08:34:23;;;;;;;5.40;3.80;;;;;;;;;;5090589;28;20292;-73
2021/05/06 08:36:50;;;;;;;5.50;3.80;;;;;;;;;;5088908;28;20225;-76
2021/05/06 08:39:17;;;;;;;5.13;3.77;;;;;;;;;;5093646;28;20202;-76
2021/05/06 08:41:44;;;;;;;5.67;4.03;;;;;;;;;;5092301;28;20251;-73
2021/05/06 08:44:12;;;;;;;4.97;3.50;;;;;;;;;;5093457;28;20609;-73
2021/05/06 08:46:45;;;;;;;4.00;3.07;;;;;;;;;;5091745;28;20647;-73
2021/05/06 08:49:13;;;;;;;3.47;2.40;;;;;;;;;;5089636;28;20538;-73
2021/05/06 08:51:40;;;;;;;4.03;2.60;;;;;;;;;;5089431;28;20281;-74
2021/05/06 08:54:07;;;;;;;5.50;2.60;;;;;;;;;;5091479;28;20674;-72
2021/05/06 08:56:34;;;;;;;4.30;2.87;;;;;;;;;;5089962;28;20227;-76
2021/05/06 08:59:00;;;;;;;4.63;3.10;;;;;;;;;;5091955;28;20289;-76
2021/05/06 09:01:27;;;;;;;4.23;2.93;;;;;;;;;;5087068;28;20244;-75
2021/05/06 09:03:54;;;;;;;3.83;2.70;;;;;;;;;;5092379;28;20651;-75
2021/05/06 09:06:23;;;;;;;4.47;3.17;;;;;;;;;;5091710;28;20290;-75
2021/05/06 09:08:52;;;;;;;5.80;2.93;;;;;;;;;;5091964;28;20195;-75
2021/05/06 09:11:28;;;;;;;4.80;2.67;;;;;;;;;;5089045;28;20670;-75
2021/05/06 09:14:01;;;;;;;3.50;2.40;;;;;;;;;;5091790;28;20210;-75
2021/05/06 09:16:32;;;;;;;4.30;2.50;;;;;;;;;;5088445;28;20230;-74
2021/05/06 09:19:02;;;;;;;3.10;2.30;;;;;;;;;;5092391;28;20281;-75
2021/05/06 09:21:30;;;;;;;4.33;2.17;;;;;;;;;;5089408;28;20301;-75
2021/05/06 09:24:07;;;;;;;5.57;2.40;;;;;;;;;;5091116;28;20720;-74
2021/05/06 09:26:34;;;;;;;5.50;2.67;;;;;;;;;;5083858;28;20344;-74
2021/05/06 09:29:02;;;;;;;4.73;2.50;;;;;;;;;;5090864;28;20226;-75
2021/05/06 09:31:29;;;;;;;3.93;2.00;;;;;;;;;;5088674;28;20198;-75
2021/05/06 09:33:56;;;;;;;4.23;2.20;;;;;;;;;;5091691;28;20285;-75
2021/05/06 09:36:24;;;;;;;2.87;1.90;;;;;;;;;;5088805;28;20222;-75
2021/05/06 09:38:52;;;;;;;4.77;2.30;;;;;;;;;;5091637;28;20202;-75
2021/05/06 09:41:20;;;;;;;5.63;3.00;;;;;;;;;;5085714;28;20344;-75
2021/05/06 09:43:47;;;;;;;5.83;2.20;;;;;;;;;;5091850;28;20198;-75
2021/05/06 09:46:24;;;;;;;4.03;2.03;;;;;;;;;;5087998;28;20230;-75
2021/05/06 09:48:58;;;;;;;4.20;2.53;;;;;;;;;;5089674;28;20202;-75
2021/05/06 09:51:35;;;;;;;5.67;2.30;;;;;;;;;;5089347;28;20214;-75
2021/05/06 09:54:03;;;;;;;4.10;2.30;;;;;;;;;;5090863;28;20302;-74
2021/05/06 09:56:30;;;;;;;8.67;3.00;;;;;;;;;;5083520;28;20684;-74
2021/05/06 09:58:57;;;;;;;6.57;2.60;;;;;;;;;;5091695;28;20205;-74
2021/05/06 10:01:32;;;;;;;7.43;2.43;;;;;;;;;;5086106;28;20300;-75
2021/05/06 10:04:11;;;;;;;5.00;2.23;;;;;;;;;;5091357;28;20229;-75
2021/05/06 10:06:38;;;;;;;3.97;1.83;;;;;;;;;;5090150;28;20347;-75
2021/05/06 10:09:06;;;;;;;5.47;2.30;;;;;;;;;;5088135;28;20281;-75
2021/05/06 10:11:33;;;;;;;4.50;2.10;;;;;;;;;;5090719;28;20282;-75
2021/05/06 10:14:00;;;;;;;4.83;1.90;;;;;;;;;;5085522;28;20754;-75
2021/05/06 10:16:27;;;;;;;4.60;2.03;;;;;;;;;;5090937;28;20298;-75
2021/05/06 10:18:54;;;;;;;6.83;2.47;;;;;;;;;;5090343;28;20754;-75
2021/05/06 10:21:21;;;;;;;5.03;2.30;;;;;;;;;;5090483;28;20275;-75
2021/05/06 10:23:48;;;;;;;6.37;2.10;;;;;;;;;;5085303;28;20302;-75
2021/05/06 10:26:16;;;;;;;4.27;1.60;;;;;;;;;;5090394;28;20695;-74
2021/05/06 10:28:43;;;;;;;4.73;1.90;;;;;;;;;;5083375;28;20206;-75
2021/05/06 10:31:10;;;;;;;5.63;2.00;;;;;;;;;;5085374;28;20191;-75
2021/05/06 10:33:38;;;;;;;6.10;2.10;;;;;;;;;;5089338;28;20202;-75
2021/05/06 10:36:05;;;;;;;8.30;2.60;;;;;;;;;;5091563;28;20198;-75
2021/05/06 10:38:32;;;;;;;6.13;2.27;;;;;;;;;;5091118;28;20195;-75
2021/05/06 10:41:24;;;;;;;5.93;2.47;;;;;;;;;;5091854;28;20382;-75
2021/05/06 10:43:53;;;;;;;4.97;1.97;;;;;;;;;;5090432;28;20214;-75
2021/05/06 10:46:20;;;;;;;5.33;2.10;;;;;;;;;;5091843;28;20281;-73
2021/05/06 10:49:02;;;;;;;7.07;2.07;;;;;;;;;;5091401;28;20199;-75
2021/05/06 10:51:42;;;;;;;6.50;2.20;;;;;;;;;;5091240;28;20187;-75
2021/05/06 10:54:27;;;;;;;8.30;2.53;;;;;;;;;;5090399;28;20201;-75
2021/05/06 10:56:54;;;;;;;7.53;1.83;;;;;;;;;;5091414;28;20298;-75
2021/05/06 10:59:25;;;;;;;5.67;1.93;;;;;;;;;;5088440;28;20548;-75
2021/05/06 11:01:52;;;;;;;6.30;2.03;;;;;;;;;;5080259;28;20228;-75
2021/05/06 11:04:32;;;;;;;8.10;2.00;;;;;;;;;;5088787;28;20225;-75
2021/05/06 11:07:15;;;;;;;8.47;2.17;;;;;;;;;;5079880;28;20206;-75
2021/05/06 11:09:53;;;;;;;6.37;1.97;;;;;;;;;;5089984;28;20199;-75
2021/05/06 11:12:30;;;;;;;9.13;2.00;;;;;;;;;;5090157;28;20216;-73
2021/05/06 11:15:27;;;;;;;6.80;2.03;;;;;;;;;;5089895;28;20216;-73
2021/05/06 11:17:56;;;;;;;6.35;1.70;;;;;;;;;;5087331;28;20202;-73
2021/05/06 11:20:40;;;;;;;4.85;1.88;;;;;;;;;;5089969;28;20285;-73
2021/05/06 11:23:17;;;;;;;4.90;1.90;;;;;;;;;;5089234;28;20203;-74
2021/05/06 11:25:51;;;;;;;6.63;2.17;;;;;;;;;;5090534;28;20253;-76
2021/05/06 11:28:36;;;;;;;5.60;1.80;;;;;;;;;;5088302;28;20206;-75
2021/05/06 11:31:03;;;;;;;7.77;2.10;;;;;;;;;;5087297;28;20198;-75
2021/05/06 11:33:30;;;;;;;6.93;1.87;;;;;;;;;;5085145;28;20229;-75
2021/05/06 11:35:58;;;;;;;6.63;1.93;;;;;;;;;;5089524;28;20206;-75
2021/05/06 11:38:24;;;;;;;8.30;2.23;;;;;;;;;;5090755;28;20206;-75
2021/05/06 11:40:58;;;;;;;9.47;2.33;;;;;;;;;;5092739;28;20421;-75
2021/05/06 11:43:25;;;;;;;7.93;2.37;;;;;;;;;;5092603;28;20190;-75
2021/05/06 11:46:03;;;;;;;7.40;2.07;;;;;;;;;;5091918;28;20281;-75
2021/05/06 11:48:35;;;;;;;6.27;2.20;;;;;;;;;;5089921;28;20722;-76
2021/05/06 11:51:01;;;;;;;7.28;2.22;;;;;;;;;;5093190;28;20194;-76
2021/05/06 11:53:28;;;;;;;6.50;2.20;;;;;;;;;;5087751;28;20551;-76
2021/05/06 11:55:55;;;;;;;8.90;2.40;;;;;;;;;;5087024;28;20225;-75
2021/05/06 11:58:23;;;;;;;5.90;2.35;;;;;;;;;;5092968;28;20230;-76
2021/05/06 12:00:52;;;;;;;7.22;1.92;;;;;;;;;;5091879;28;20199;-76
2021/05/06 12:03:18;;;;;;;7.85;2.03;;;;;;;;;;5092664;28;20297;-76
2021/05/06 12:05:50;;;;;;;8.13;2.28;;;;;;;;;;5092336;28;20775;-76
2021/05/06 12:08:18;;;;;;;7.32;2.20;;;;;;;;;;5093303;28;20254;-76
2021/05/06 12:10:45;;;;;;;6.97;2.25;;;;;;;;;;5093151;28;20204;-75
2021/05/06 12:13:11;;;;;;;6.68;2.13;;;;;;;;;;5093479;28;20293;-74
2021/05/06 12:15:38;;;;;;;6.85;2.10;;;;;;;;;;5093335;28;20267;-75
2021/05/06 12:18:14;;;;;;;4.45;2.22;;;;;;;;;;5093282;28;20218;-75
2021/05/06 12:20:47;;;;;;;5.37;2.00;;;;;;;;;;5093364;28;20714;-75
2021/05/06 12:23:15;;;;;;;6.17;2.03;;;;;;;;;;5093206;28;20647;-76
2021/05/06 12:25:41;;;;;;;6.37;1.90;;;;;;;;;;5087244;28;20406;-74
2021/05/06 12:28:08;;;;;;;7.20;2.30;;;;;;;;;;5092292;28;20294;-74
2021/05/06 12:30:35;;;;;;;5.22;2.00;;;;;;;;;;5090261;28;20301;-75
2021/05/06 12:33:01;;;;;;;5.45;1.77;;;;;;;;;;5090648;28;20614;-75
2021/05/06 12:35:28;;;;;;;4.65;1.73;;;;;;;;;;5091592;28;20194;-75
2021/05/06 12:37:55;;;;;;;5.88;1.80;;;;;;;;;;5090326;28;20287;-72
2021/05/06 12:40:27;;;;;;;6.93;1.60;;;;;;;;;;5092062;28;20277;-74
2021/05/06 12:42:53;;;;;;;6.07;2.00;;;;;;;;;;5090874;28;20218;-75
2021/05/06 12:45:30;;;;;;;6.28;1.98;;;;;;;;;;5091634;28;20194;-75
2021/05/06 12:47:57;;;;;;;6.18;1.83;;;;;;;;;;5090607;28;20220;-75
2021/05/06 12:50:26;;;;;;;4.97;1.90;;;;;;;;;;5089677;28;20259;-73
2021/05/06 12:52:53;;;;;;;6.45;2.17;;;;;;;;;;5092140;28;20542;-74
2021/05/06 12:55:22;;;;;;;6.82;1.83;;;;;;;;;;5091785;28;20229;-74
2021/05/06 13:00:42;;;;;;;6.82;1.70;;;;;;;;;;5106148;27;20521;-75
2021/05/06 13:03:10;;;;;;;4.93;1.80;;;;;;;;;;5104407;28;20285;-74
2021/05/06 13:05:37;;;;;;;4.50;1.90;;;;;;;;;;5106647;28;20285;-75
2021/05/06 13:08:04;;;;;;;4.13;1.90;;;;;;;;;;5106099;28;20189;-75
2021/05/06 13:10:35;;;;;;;7.25;2.17;;;;;;;;;;5107876;28;20246;-75
2021/05/06 13:13:02;;;;;;;10.45;2.00;;;;;;;;;;5108282;28;20202;-75
2021/05/06 13:15:29;;;;;;;6.75;2.05;;;;;;;;;;5107222;28;20285;-74
2021/05/06 13:17:58;;;;;;;7.88;2.50;;;;;;;;;;5106416;28;20217;-75
2021/05/06 13:20:26;;;;;;;7.57;2.10;;;;;;;;;;5107060;28;20214;-75
2021/05/06 13:23:00;;;;;;;7.10;2.40;;;;;;;;;;5106706;28;20575;-75
2021/05/06 13:25:43;;;;;;;8.23;2.08;;;;;;;;;;5101501;28;20297;-75
2021/05/06 13:28:10;;;;;;;6.97;1.92;;;;;;;;;;5081499;28;20206;-75
2021/05/06 13:30:37;;;;;;;10.60;2.53;;;;;;;;;;5085348;28;20194;-75
2021/05/06 13:33:17;;;;;;;11.18;2.38;;;;;;;;;;5080753;28;20651;-75
2021/05/06 13:35:59;;;;;;;8.70;2.30;;;;;;;;;;5081722;28;20198;-75
2021/05/06 13:38:25;;;;;;;11.18;2.30;;;;;;;;;;5075099;28;20289;-75
2021/05/06 13:40:52;;;;;;;7.72;2.00;;;;;;;;;;5081116;28;20222;-75
2021/05/06 13:43:19;;;;;;;9.07;2.55;;;;;;;;;;5081086;28;20316;-75
2021/05/06 13:45:45;;;;;;;9.77;2.28;;;;;;;;;;5081261;28;20209;-74
2021/05/06 13:48:12;;;;;;;6.50;2.22;;;;;;;;;;5083046;28;20195;-75
2021/05/06 13:50:40;;;;;;;7.95;2.05;;;;;;;;;;5083189;28;20226;-75
2021/05/06 13:53:07;;;;;;;8.10;2.00;;;;;;;;;;5085605;28;20284;-75
2021/05/06 13:55:34;;;;;;;7.68;2.20;;;;;;;;;;5083526;28;20647;-74
2021/05/06 13:58:00;;;;;;;9.68;2.17;;;;;;;;;;5076957;28;20238;-75
2021/05/06 14:00:27;;;;;;;8.40;2.35;;;;;;;;;;5080688;28;20310;-74
2021/05/06 14:02:54;;;;;;;9.00;2.08;;;;;;;;;;5082729;28;20217;-74
2021/05/06 14:05:21;;;;;;;7.07;2.22;;;;;;;;;;5082226;28;20285;-75
2021/05/06 14:07:48;;;;;;;7.10;1.90;;;;;;;;;;5083833;28;20587;-74
2021/05/06 14:10:15;;;;;;;6.93;1.92;;;;;;;;;;5077136;28;20610;-74
2021/05/06 14:12:42;;;;;;;9.38;2.20;;;;;;;;;;5066621;28;20223;-74
2021/05/06 14:15:09;;;;;;;6.70;2.08;;;;;;;;;;5069136;28;20314;-74
2021/05/06 14:17:35;;;;;;;6.97;1.85;;;;;;;;;;5069052;28;20612;-74
2021/05/06 14:20:02;;;;;;;7.90;2.15;;;;;;;;;;5067413;28;20247;-74
2021/05/06 14:22:29;;;;;;;7.22;1.70;;;;;;;;;;5063931;28;20196;-74
2021/05/06 14:25:00;;;;;;;7.68;1.63;;;;;;;;;;5070543;28;20230;-74
2021/05/06 14:27:27;;;;;;;8.52;2.05;;;;;;;;;;5065385;28;20215;-74
2021/05/06 14:29:56;;;;;;;6.00;1.83;;;;;;;;;;5067771;28;20203;-76
2021/05/06 14:32:23;;;;;;;6.53;2.15;;;;;;;;;;5067897;28;20291;-76
2021/05/06 14:34:51;;;;;;;9.65;1.58;;;20.90;99.90;;;;;;5067773;28;20210;-76
2021/05/06 14:37:18;;;;;;;6.15;1.95;;;20.90;99.90;;;;;;5068166;28;21101;-76
2021/05/06 14:39:50;;;;;;;7.60;2.00;;;19.70;99.90;;;;;;5070121;28;20258;-75
2021/05/06 14:42:19;;;;;;;7.20;2.30;;;18.70;99.90;;;;;;5065970;28;20195;-77
2021/05/06 14:44:46;;;;;;;8.23;2.10;;;18.40;99.90;;;;;;5070080;28;20199;-76
2021/05/06 14:47:13;;;;;;;7.07;1.95;;;18.10;99.90;;;;;;5068084;28;20669;-77
2021/05/06 14:49:39;;;;;;;5.25;1.85;;;18.00;99.90;;;;;;5068869;28;20268;-77
2021/05/06 14:52:06;;;;;;;11.45;2.70;;;17.80;99.90;;;;;;5068082;28;20397;-76
2021/05/06 14:54:33;;;;;;;9.07;2.03;;;18.30;99.90;;;;;;5069445;28;20207;-77
2021/05/06 14:57:00;;;;;;;7.30;2.15;;;18.40;99.90;;;;;;5066065;28;20249;-75
2021/05/06 14:59:27;;;;;;;7.38;2.13;;;19.20;99.90;;;;;;5065160;28;20270;-76
2021/05/06 15:01:54;;;;;;;9.85;2.20;;;19.20;99.90;;;;;;5068389;28;20760;-76
2021/05/06 15:04:21;;;;;;;11.57;2.30;;;19.10;99.90;;;;;;5068549;28;20578;-75
2021/05/06 15:06:47;;;;;;;9.90;2.40;;;18.70;99.90;;;;;;5065745;28;20205;-76
2021/05/06 15:09:14;;;;;;;9.07;2.30;;;18.20;99.90;;;;;;5068743;28;20195;-75
2021/05/06 15:11:41;;;;;;;9.73;2.22;;;18.00;99.90;;;;;;5067406;28;20195;-75
2021/05/06 15:14:15;;;;;;;9.30;2.50;;;17.90;99.90;;;;;;5067373;28;20228;-76
2021/05/06 15:16:43;;;;;;;8.87;2.53;;;18.00;99.90;;;;;;5066596;28;20194;-75
2021/05/06 15:19:10;;;;;;;7.30;2.60;;;18.20;99.90;;;;;;5065821;28;20729;-75
2021/05/06 15:21:38;;;;;;;10.80;2.27;;;18.20;99.90;;;;;;5067391;28;20199;-76
2021/05/06 15:24:05;;;;;;;10.50;2.53;;;17.60;99.90;;;;;;5067873;28;20226;-76
2021/05/06 15:26:33;;;;;;;9.70;2.50;;;17.60;99.90;;;;;;5068480;28;20305;-76
2021/05/06 15:29:00;;;;;;;12.77;2.67;;;17.40;99.90;;;;;;5067153;28;20197;-76
2021/05/06 15:31:27;;;;;;;8.67;2.13;;;17.40;99.90;;;;;;5065922;28;20199;-76
2021/05/06 15:33:55;;;;;;;10.87;2.57;;;16.80;99.90;;;;;;5068981;28;20203;-76
2021/05/06 15:36:23;;;;;;;9.07;2.23;;;16.70;99.90;;;;;;5067859;28;20552;-76
2021/05/06 15:38:51;;;;;;;13.00;2.83;;;16.30;99.90;;;;;;5066055;28;20224;-75
2021/05/06 15:41:18;;;;;;;7.80;1.90;;;16.00;99.90;;;;;;5070180;28;20286;-75
2021/05/06 15:43:44;;;;;;;7.57;2.47;;;16.00;99.90;;;;;;5065884;28;20214;-75
2021/05/06 15:46:11;;;;;;;6.60;2.20;;;15.80;99.90;;;;;;5069046;28;20227;-75
2021/05/06 15:48:38;;;;;;;7.80;2.30;;;15.70;99.90;;;;;;5071783;28;20199;-75
2021/05/06 15:51:06;;;;;;;6.57;2.43;;;15.40;99.90;;;;;;5070223;28;20226;-75
2021/05/06 15:53:32;;;;;;;7.30;2.40;;;;;;;;;;5065764;28;20225;-75
2021/05/06 15:56:00;;;;;;;6.97;2.20;;;;;;;;;;5070309;28;20199;-74
2021/05/06 15:58:27;;;;;;;9.37;2.50;;;;;;;;;;5065572;28;20191;-75
2021/05/06 16:00:56;;;;;;;6.87;2.00;;;;;;;;;;5069867;28;20243;-74
2021/05/06 16:03:25;;;;;;;6.57;2.00;;;;;;;;;;5070927;28;20200;-75
2021/05/06 16:05:53;;;;;;;5.97;1.93;;;;;;;;;;5070061;28;20267;-75
2021/05/06 16:08:25;;;;;;;7.23;2.30;;;;;;;;;;5072492;28;20217;-74
2021/05/06 16:10:53;;;;;;;11.37;2.77;;;;;;;;;;5068878;28;20206;-75
2021/05/06 16:13:20;;;;;;;6.37;2.00;;;;;;;;;;5067856;28;20202;-75
2021/05/06 16:15:49;;;;;;;9.33;2.50;;;;;;;;;;5064231;28;20210;-75
2021/05/06 16:18:16;;;;;;;5.67;2.20;;;;;;;;;;5070149;28;20195;-74
2021/05/06 16:20:43;;;;;;;6.53;2.80;;;;;;;;;;5070996;28;20690;-75
2021/05/06 16:23:10;;;;;;;9.00;3.20;;;;;;;;;;5070480;28;20315;-74
2021/05/06 16:25:38;;;;;;;10.23;3.37;;;;;;;;;;5070234;28;20304;-75
2021/05/06 16:28:05;;;;;;;8.87;2.40;;;;;;;;;;5067001;28;20195;-75
2021/05/06 16:30:32;;;;;;;14.37;2.97;;;;;;;;;;5068151;28;20207;-75
2021/05/06 16:33:01;;;;;;;9.20;2.53;;;;;;;;;;5069737;28;20203;-75
2021/05/06 16:35:31;;;;;;;10.67;2.87;;;;;;;;;;5070256;28;20288;-75
2021/05/06 16:38:00;;;;;;;11.90;3.03;;;;;;;;;;5061511;28;20200;-75
2021/05/06 16:40:32;;;;;;;10.73;3.30;;;;;;;;;;5069389;28;20686;-75
2021/05/06 16:45:56;;;;;;;9.40;2.77;;;;;;;;;;5009085;28;20283;-75
2021/05/06 16:48:24;;;;;;;13.40;3.90;;;;;;;;;;5008924;28;20210;-75
2021/05/06 16:50:50;;;;;;;8.30;2.97;;;;;;;;;;5009311;28;20288;-75
2021/05/06 16:53:18;;;;;;;12.63;4.00;;;;;;;;;;5007581;28;20801;-75
2021/05/06 16:55:46;;;;;;;10.33;2.73;;;;;;;;;;5007339;28;20284;-75
2021/05/06 16:58:13;;;;;;;8.83;3.23;;;;;;;;;;5006867;28;20208;-74
2021/05/06 17:00:40;;;;;;;12.17;3.50;;;;;;;;;;4658057;28;10000294;-74
2021/05/06 17:03:07;;;;;;;11.97;3.60;;;;;;;;;;5004877;28;20627;-75
2021/05/06 17:05:34;;;;;;;13.60;4.23;;;;;;;;;;5003794;28;20205;-75
2021/05/06 17:08:01;;;;;;;12.57;4.00;;;;;;;;;;5003670;28;20208;-75